sensor_id;sensor_type;location;lat;lon;timestamp;pressure;altitude;pressure_sealevel;temperature;humidity
48553;BME280;34335;51.566;6.994;2023-06-10T00:01:18;100836.84;;;20.83;73.56
48553;BME280;34335;51.566;6.994;2023-06-10T00:03:43;100840.78;;;20.73;79.21
48553;BME280;34335;51.566;6.994;2023-06-10T00:06:08;100837.41;;;20.69;81.26
48553;BME280;34335;51.566;6.994;2023-06-10T00:08:34;100836.78;;;20.62;81.91
48553;BME280;34335;51.566;6.994;2023-06-10T00:10:59;100837.59;;;20.64;76.40
48553;BME280;34335;51.566;6.994;2023-06-10T00:13:25;100834.34;;;20.58;75.83
48553;BME280;34335;51.566;6.994;2023-06-10T00:15:50;100839.72;;;20.54;75.80
48553;BME280;34335;51.566;6.994;2023-06-10T00:18:16;100831.06;;;20.73;72.46
48553;BME280;34335;51.566;6.994;2023-06-10T00:20:42;100832.84;;;20.73;72.83
48553;BME280;34335;51.566;6.994;2023-06-10T00:23:07;100836.25;;;20.76;73.40
48553;BME280;34335;51.566;6.994;2023-06-10T00:25:34;100838.25;;;20.69;75.64
48553;BME280;34335;51.566;6.994;2023-06-10T00:28:00;100836.72;;;20.64;74.73
48553;BME280;34335;51.566;6.994;2023-06-10T00:30:25;100838.09;;;20.74;74.72
48553;BME280;34335;51.566;6.994;2023-06-10T00:32:51;100836.47;;;20.70;75.83
48553;BME280;34335;51.566;6.994;2023-06-10T00:35:16;100838.31;;;20.68;76.62
48553;BME280;34335;51.566;6.994;2023-06-10T00:37:42;100841.22;;;20.62;76.40
48553;BME280;34335;51.566;6.994;2023-06-10T00:40:07;100836.72;;;20.64;77.02
48553;BME280;34335;51.566;6.994;2023-06-10T00:42:34;100839.44;;;20.62;77.32
48553;BME280;34335;51.566;6.994;2023-06-10T00:45:00;100829.31;;;20.51;77.36
48553;BME280;34335;51.566;6.994;2023-06-10T00:47:25;100833.53;;;20.55;78.63
48553;BME280;34335;51.566;6.994;2023-06-10T00:49:51;100830.59;;;20.41;84.89
48553;BME280;34335;51.566;6.994;2023-06-10T00:52:18;100836.63;;;20.45;81.85
48553;BME280;34335;51.566;6.994;2023-06-10T00:54:44;100841.34;;;20.36;80.50
48553;BME280;34335;51.566;6.994;2023-06-10T00:57:10;100838.28;;;20.25;83.81
48553;BME280;34335;51.566;6.994;2023-06-10T00:59:38;100837.28;;;20.28;81.25
48553;BME280;34335;51.566;6.994;2023-06-10T01:02:04;100833.66;;;20.30;81.16
48553;BME280;34335;51.566;6.994;2023-06-10T01:04:30;100829.13;;;20.34;81.89
48553;BME280;34335;51.566;6.994;2023-06-10T01:09:38;100835.56;;;20.27;83.67
48553;BME280;34335;51.566;6.994;2023-06-10T01:12:19;100839.72;;;20.10;86.41
48553;BME280;34335;51.566;6.994;2023-06-10T01:14:48;100836.72;;;20.19;83.04
48553;BME280;34335;51.566;6.994;2023-06-10T01:17:16;100843.84;;;20.17;82.24
48553;BME280;34335;51.566;6.994;2023-06-10T01:19:43;100843.41;;;20.06;85.62
48553;BME280;34335;51.566;6.994;2023-06-10T01:22:09;100849.72;;;20.02;84.38
48553;BME280;34335;51.566;6.994;2023-06-10T01:24:36;100847.44;;;19.92;83.93
48553;BME280;34335;51.566;6.994;2023-06-10T01:27:05;100859.94;;;19.87;93.79
48553;BME280;34335;51.566;6.994;2023-06-10T01:29:37;100851.91;;;19.90;89.29
48553;BME280;34335;51.566;6.994;2023-06-10T01:32:10;100854.44;;;19.93;83.94
48553;BME280;34335;51.566;6.994;2023-06-10T01:34:39;100855.34;;;19.92;84.25
48553;BME280;34335;51.566;6.994;2023-06-10T01:37:07;100848.78;;;19.79;85.90
48553;BME280;34335;51.566;6.994;2023-06-10T01:39:34;100857.84;;;19.72;86.27
48553;BME280;34335;51.566;6.994;2023-06-10T01:42:02;100854.19;;;19.76;87.23
48553;BME280;34335;51.566;6.994;2023-06-10T01:44:27;100851.00;;;19.66;84.90
48553;BME280;34335;51.566;6.994;2023-06-10T01:46:52;100854.38;;;19.70;84.00
48553;BME280;34335;51.566;6.994;2023-06-10T01:49:18;100845.47;;;19.74;84.92
48553;BME280;34335;51.566;6.994;2023-06-10T01:51:43;100850.84;;;19.71;83.54
48553;BME280;34335;51.566;6.994;2023-06-10T01:54:08;100849.19;;;19.68;83.49
48553;BME280;34335;51.566;6.994;2023-06-10T01:56:34;100845.72;;;19.66;84.62
48553;BME280;34335;51.566;6.994;2023-06-10T01:58:59;100857.25;;;19.64;86.31
48553;BME280;34335;51.566;6.994;2023-06-10T02:01:28;100851.25;;;19.60;89.05
48553;BME280;34335;51.566;6.994;2023-06-10T02:03:54;100854.38;;;19.46;95.26
48553;BME280;34335;51.566;6.994;2023-06-10T02:06:19;100850.03;;;19.45;88.13
48553;BME280;34335;51.566;6.994;2023-06-10T02:08:45;100856.13;;;19.45;87.10
48553;BME280;34335;51.566;6.994;2023-06-10T02:11:11;100848.78;;;19.30;90.95
48553;BME280;34335;51.566;6.994;2023-06-10T02:13:37;100852.50;;;19.24;90.15
48553;BME280;34335;51.566;6.994;2023-06-10T02:16:03;100853.88;;;19.09;93.00
48553;BME280;34335;51.566;6.994;2023-06-10T02:18:28;100861.31;;;19.23;88.30
48553;BME280;34335;51.566;6.994;2023-06-10T02:20:54;100862.59;;;19.11;94.01
48553;BME280;34335;51.566;6.994;2023-06-10T02:23:19;100852.91;;;19.12;98.18
48553;BME280;34335;51.566;6.994;2023-06-10T02:25:44;100858.41;;;19.06;92.04
48553;BME280;34335;51.566;6.994;2023-06-10T02:28:10;100855.53;;;19.12;88.59
48553;BME280;34335;51.566;6.994;2023-06-10T02:30:39;100856.75;;;19.03;90.59
48553;BME280;34335;51.566;6.994;2023-06-10T02:33:06;100861.03;;;19.06;89.17
48553;BME280;34335;51.566;6.994;2023-06-10T02:35:35;100861.19;;;19.01;95.71
48553;BME280;34335;51.566;6.994;2023-06-10T02:38:00;100860.53;;;18.94;94.12
48553;BME280;34335;51.566;6.994;2023-06-10T02:40:25;100858.63;;;18.99;88.12
48553;BME280;34335;51.566;6.994;2023-06-10T02:42:50;100860.31;;;19.00;88.05
48553;BME280;34335;51.566;6.994;2023-06-10T02:45:16;100854.28;;;18.97;87.40
48553;BME280;34335;51.566;6.994;2023-06-10T02:47:41;100866.78;;;18.90;92.99
48553;BME280;34335;51.566;6.994;2023-06-10T02:50:07;100866.06;;;18.85;87.06
48553;BME280;34335;51.566;6.994;2023-06-10T02:52:32;100856.22;;;18.63;99.84
48553;BME280;34335;51.566;6.994;2023-06-10T02:54:58;100857.97;;;18.64;91.38
48553;BME280;34335;51.566;6.994;2023-06-10T02:57:23;100864.66;;;18.75;94.25
48553;BME280;34335;51.566;6.994;2023-06-10T02:59:48;100859.59;;;18.68;91.55
48553;BME280;34335;51.566;6.994;2023-06-10T03:02:14;100864.75;;;18.72;92.36
48553;BME280;34335;51.566;6.994;2023-06-10T03:04:39;100861.63;;;18.60;91.90
48553;BME280;34335;51.566;6.994;2023-06-10T03:07:04;100857.34;;;18.56;91.32
48553;BME280;34335;51.566;6.994;2023-06-10T03:09:32;100857.28;;;18.58;89.59
48553;BME280;34335;51.566;6.994;2023-06-10T03:11:57;100858.47;;;18.49;90.44
48553;BME280;34335;51.566;6.994;2023-06-10T03:14:23;100861.13;;;18.47;90.86
48553;BME280;34335;51.566;6.994;2023-06-10T03:16:49;100858.59;;;18.44;89.83
48553;BME280;34335;51.566;6.994;2023-06-10T03:19:15;100856.06;;;18.41;90.49
48553;BME280;34335;51.566;6.994;2023-06-10T03:21:44;100864.97;;;18.37;94.86
48553;BME280;34335;51.566;6.994;2023-06-10T03:24:10;100873.13;;;18.28;94.04
48553;BME280;34335;51.566;6.994;2023-06-10T03:26:36;100872.22;;;18.29;94.44
48553;BME280;34335;51.566;6.994;2023-06-10T03:29:01;100872.22;;;18.29;91.83
48553;BME280;34335;51.566;6.994;2023-06-10T03:31:26;100869.22;;;18.13;98.15
48553;BME280;34335;51.566;6.994;2023-06-10T03:33:52;100876.84;;;18.22;91.50
48553;BME280;34335;51.566;6.994;2023-06-10T03:36:17;100873.47;;;18.17;99.03
48553;BME280;34335;51.566;6.994;2023-06-10T03:38:42;100875.34;;;18.13;94.66
48553;BME280;34335;51.566;6.994;2023-06-10T03:41:07;100875.34;;;18.13;91.31
48553;BME280;34335;51.566;6.994;2023-06-10T03:43:33;100873.81;;;18.06;97.65
48553;BME280;34335;51.566;6.994;2023-06-10T03:45:58;100888.75;;;18.04;94.44
48553;BME280;34335;51.566;6.994;2023-06-10T03:48:24;100885.38;;;18.00;96.13
48553;BME280;34335;51.566;6.994;2023-06-10T03:50:49;100887.09;;;18.01;94.16
48553;BME280;34335;51.566;6.994;2023-06-10T03:53:18;100888.06;;;17.97;100.00
48553;BME280;34335;51.566;6.994;2023-06-10T03:55:43;100881.50;;;17.81;97.69
48553;BME280;34335;51.566;6.994;2023-06-10T03:58:10;100889.41;;;17.81;96.24
48553;BME280;34335;51.566;6.994;2023-06-10T04:00:38;100884.31;;;17.74;98.58
48553;BME280;34335;51.566;6.994;2023-06-10T04:03:09;100883.75;;;17.63;100.00
48553;BME280;34335;51.566;6.994;2023-06-10T04:05:39;100884.41;;;17.71;100.00
48553;BME280;34335;51.566;6.994;2023-06-10T04:08:05;100889.47;;;17.78;98.56
48553;BME280;34335;51.566;6.994;2023-06-10T04:10:31;100885.22;;;17.73;100.00
48553;BME280;34335;51.566;6.994;2023-06-10T04:12:57;100882.66;;;17.70;99.90
48553;BME280;34335;51.566;6.994;2023-06-10T04:15:22;100885.56;;;17.61;100.00
48553;BME280;34335;51.566;6.994;2023-06-10T04:17:47;100883.50;;;17.72;93.92
48553;BME280;34335;51.566;6.994;2023-06-10T04:20:14;100886.38;;;17.63;97.84
48553;BME280;34335;51.566;6.994;2023-06-10T04:22:40;100890.75;;;17.64;100.00
48553;BME280;34335;51.566;6.994;2023-06-10T04:25:06;100892.41;;;17.67;98.60
48553;BME280;34335;51.566;6.994;2023-06-10T04:27:32;100895.75;;;17.73;96.77
48553;BME280;34335;51.566;6.994;2023-06-10T04:29:58;100890.50;;;17.72;100.00
48553;BME280;34335;51.566;6.994;2023-06-10T04:32:23;100895.88;;;17.69;100.00
48553;BME280;34335;51.566;6.994;2023-06-10T04:34:48;100903.53;;;17.76;100.00
48553;BME280;34335;51.566;6.994;2023-06-10T04:37:14;100900.75;;;17.81;98.02
48553;BME280;34335;51.566;6.994;2023-06-10T04:39:39;100905.13;;;17.82;98.46
48553;BME280;34335;51.566;6.994;2023-06-10T04:42:06;100905.19;;;17.81;100.00
48553;BME280;34335;51.566;6.994;2023-06-10T04:44:32;100903.19;;;17.89;100.00
48553;BME280;34335;51.566;6.994;2023-06-10T04:46:57;100903.19;;;17.89;98.26
48553;BME280;34335;51.566;6.994;2023-06-10T04:49:22;100903.91;;;17.94;98.97
48553;BME280;34335;51.566;6.994;2023-06-10T04:51:48;100909.03;;;18.00;100.00
48553;BME280;34335;51.566;6.994;2023-06-10T04:54:13;100907.13;;;18.05;97.15
48553;BME280;34335;51.566;6.994;2023-06-10T04:56:38;100904.34;;;18.12;100.00
48553;BME280;34335;51.566;6.994;2023-06-10T04:59:04;100906.09;;;18.11;99.87
48553;BME280;34335;51.566;6.994;2023-06-10T05:01:29;100897.09;;;18.18;97.42
48553;BME280;34335;51.566;6.994;2023-06-10T05:03:55;100900.56;;;18.20;100.00
48553;BME280;34335;51.566;6.994;2023-06-10T05:06:20;100903.81;;;18.29;97.91
48553;BME280;34335;51.566;6.994;2023-06-10T05:08:45;100900.97;;;18.36;100.00
48553;BME280;34335;51.566;6.994;2023-06-10T05:11:11;100903.53;;;18.38;98.84
48553;BME280;34335;51.566;6.994;2023-06-10T05:13:36;100900.69;;;18.46;98.52
48553;BME280;34335;51.566;6.994;2023-06-10T05:16:01;100899.56;;;18.53;98.75
48553;BME280;34335;51.566;6.994;2023-06-10T05:18:27;100902.03;;;18.59;96.56
48553;BME280;34335;51.566;6.994;2023-06-10T05:20:52;100907.25;;;18.61;97.29
48553;BME280;34335;51.566;6.994;2023-06-10T05:23:19;100907.94;;;18.66;94.93
48553;BME280;34335;51.566;6.994;2023-06-10T05:25:44;100910.47;;;18.71;98.53
48553;BME280;34335;51.566;6.994;2023-06-10T05:28:10;100914.00;;;18.69;97.30
48553;BME280;34335;51.566;6.994;2023-06-10T05:30:36;100903.88;;;18.84;95.86
48553;BME280;34335;51.566;6.994;2023-06-10T05:33:02;100915.09;;;18.91;95.74
48553;BME280;34335;51.566;6.994;2023-06-10T05:35:28;100914.88;;;18.98;94.59
48553;BME280;34335;51.566;6.994;2023-06-10T05:37:53;100909.06;;;18.87;94.38
48553;BME280;34335;51.566;6.994;2023-06-10T05:40:18;100915.50;;;19.05;93.38
48553;BME280;34335;51.566;6.994;2023-06-10T05:42:43;100905.94;;;19.03;96.17
48553;BME280;34335;51.566;6.994;2023-06-10T05:45:09;100913.53;;;19.12;94.46
48553;BME280;34335;51.566;6.994;2023-06-10T05:47:35;100915.63;;;19.29;93.68
48553;BME280;34335;51.566;6.994;2023-06-10T05:50:00;100914.69;;;19.30;92.97
48553;BME280;34335;51.566;6.994;2023-06-10T05:52:25;100927.47;;;19.42;92.91
48553;BME280;34335;51.566;6.994;2023-06-10T05:54:51;100924.06;;;19.39;95.21
48553;BME280;34335;51.566;6.994;2023-06-10T05:57:16;100919.00;;;19.58;92.35
48553;BME280;34335;51.566;6.994;2023-06-10T05:59:41;100923.31;;;19.60;92.97
48553;BME280;34335;51.566;6.994;2023-06-10T06:02:07;100917.50;;;19.76;91.38
48553;BME280;34335;51.566;6.994;2023-06-10T06:04:33;100922.81;;;19.74;91.45
48553;BME280;34335;51.566;6.994;2023-06-10T06:06:58;100922.78;;;19.76;91.95
48553;BME280;34335;51.566;6.994;2023-06-10T06:09:24;100928.44;;;19.90;90.71
48553;BME280;34335;51.566;6.994;2023-06-10T06:11:49;100924.16;;;19.88;91.62
48553;BME280;34335;51.566;6.994;2023-06-10T06:14:14;100930.66;;;20.03;91.24
48553;BME280;34335;51.566;6.994;2023-06-10T06:16:39;100925.13;;;20.09;90.82
48553;BME280;34335;51.566;6.994;2023-06-10T06:19:05;100923.59;;;20.27;90.77
48553;BME280;34335;51.566;6.994;2023-06-10T06:21:30;100920.50;;;20.38;89.19
48553;BME280;34335;51.566;6.994;2023-06-10T06:23:55;100917.41;;;20.50;91.58
48553;BME280;34335;51.566;6.994;2023-06-10T06:26:20;100920.34;;;20.65;88.67
48553;BME280;34335;51.566;6.994;2023-06-10T06:28:46;100927.72;;;20.80;87.29
48553;BME280;34335;51.566;6.994;2023-06-10T06:31:11;100924.06;;;20.83;87.04
48553;BME280;34335;51.566;6.994;2023-06-10T06:33:36;100924.53;;;20.93;86.75
48553;BME280;34335;51.566;6.994;2023-06-10T06:36:02;100919.03;;;20.99;85.60
48553;BME280;34335;51.566;6.994;2023-06-10T06:38:27;100919.16;;;20.96;87.21
48553;BME280;34335;51.566;6.994;2023-06-10T06:40:53;100929.03;;;21.13;85.34
48553;BME280;34335;51.566;6.994;2023-06-10T06:43:18;100922.34;;;21.25;85.29
48553;BME280;34335;51.566;6.994;2023-06-10T06:45:44;100931.31;;;21.43;83.52
48553;BME280;34335;51.566;6.994;2023-06-10T06:48:11;100937.19;;;21.50;83.72
48553;BME280;34335;51.566;6.994;2023-06-10T06:50:36;100926.25;;;21.59;83.41
48553;BME280;34335;51.566;6.994;2023-06-10T06:53:02;100931.13;;;21.68;82.94
48553;BME280;34335;51.566;6.994;2023-06-10T06:55:27;100935.09;;;21.78;81.71
48553;BME280;34335;51.566;6.994;2023-06-10T06:57:53;100932.81;;;21.90;82.56
48553;BME280;34335;51.566;6.994;2023-06-10T07:00:18;100929.31;;;22.08;82.40
48553;BME280;34335;51.566;6.994;2023-06-10T07:02:43;100934.94;;;22.21;80.63
48553;BME280;34335;51.566;6.994;2023-06-10T07:05:09;100938.94;;;22.30;80.25
48553;BME280;34335;51.566;6.994;2023-06-10T07:07:34;100929.13;;;22.32;80.26
48553;BME280;34335;51.566;6.994;2023-06-10T07:09:59;100939.03;;;22.48;79.95
48553;BME280;34335;51.566;6.994;2023-06-10T07:12:25;100934.44;;;22.70;78.44
48553;BME280;34335;51.566;6.994;2023-06-10T07:14:50;100940.53;;;22.72;78.62
48553;BME280;34335;51.566;6.994;2023-06-10T07:17:16;100945.19;;;22.85;78.35
48553;BME280;34335;51.566;6.994;2023-06-10T07:19:43;100938.22;;;23.01;76.93
48553;BME280;34335;51.566;6.994;2023-06-10T07:22:08;100934.00;;;22.97;76.16
48553;BME280;34335;51.566;6.994;2023-06-10T07:24:34;100938.28;;;23.19;78.03
48553;BME280;34335;51.566;6.994;2023-06-10T07:26:59;100940.94;;;23.37;77.75
48553;BME280;34335;51.566;6.994;2023-06-10T07:29:24;100947.69;;;23.60;75.96
48553;BME280;34335;51.566;6.994;2023-06-10T07:31:50;100940.13;;;23.70;74.43
48553;BME280;34335;51.566;6.994;2023-06-10T07:34:15;100946.38;;;23.69;74.09
48553;BME280;34335;51.566;6.994;2023-06-10T07:36:40;100937.13;;;23.76;74.54
48553;BME280;34335;51.566;6.994;2023-06-10T07:39:05;100941.72;;;23.90;74.74
48553;BME280;34335;51.566;6.994;2023-06-10T07:41:32;100939.47;;;24.00;75.58
48553;BME280;34335;51.566;6.994;2023-06-10T07:43:57;100940.34;;;24.16;72.89
48553;BME280;34335;51.566;6.994;2023-06-10T07:46:23;100939.69;;;24.29;72.48
48553;BME280;34335;51.566;6.994;2023-06-10T07:48:48;100937.78;;;24.31;72.21
48553;BME280;34335;51.566;6.994;2023-06-10T07:51:17;100939.06;;;24.39;71.64
48553;BME280;34335;51.566;6.994;2023-06-10T07:53:42;100929.56;;;24.51;70.40
48553;BME280;34335;51.566;6.994;2023-06-10T07:56:08;100932.91;;;24.71;71.13
48553;BME280;34335;51.566;6.994;2023-06-10T07:58:33;100938.91;;;24.74;70.65
48553;BME280;34335;51.566;6.994;2023-06-10T08:00:58;100940.19;;;24.83;70.34
48553;BME280;34335;51.566;6.994;2023-06-10T08:03:24;100937.16;;;25.05;69.83
48553;BME280;34335;51.566;6.994;2023-06-10T08:05:49;100929.66;;;25.12;69.43
48553;BME280;34335;51.566;6.994;2023-06-10T08:08:14;100926.47;;;25.36;70.07
48553;BME280;34335;51.566;6.994;2023-06-10T08:10:39;100936.06;;;25.55;68.02
48553;BME280;34335;51.566;6.994;2023-06-10T08:13:05;100934.63;;;25.49;66.36
48553;BME280;34335;51.566;6.994;2023-06-10T08:15:30;100936.66;;;25.60;65.86
48553;BME280;34335;51.566;6.994;2023-06-10T08:17:56;100933.03;;;25.75;66.22
48553;BME280;34335;51.566;6.994;2023-06-10T08:20:24;100937.69;;;25.72;65.86
48553;BME280;34335;51.566;6.994;2023-06-10T08:22:50;100932.56;;;25.83;62.93
48553;BME280;34335;51.566;6.994;2023-06-10T08:25:15;100938.34;;;26.04;66.37
48553;BME280;34335;51.566;6.994;2023-06-10T08:27:40;100937.31;;;26.07;64.16
48553;BME280;34335;51.566;6.994;2023-06-10T08:30:06;100938.66;;;26.28;64.37
48553;BME280;34335;51.566;6.994;2023-06-10T08:32:32;100933.25;;;26.57;63.82
48553;BME280;34335;51.566;6.994;2023-06-10T08:34:57;100940.00;;;26.63;64.02
48553;BME280;34335;51.566;6.994;2023-06-10T08:37:22;100944.16;;;26.82;63.32
48553;BME280;34335;51.566;6.994;2023-06-10T08:39:48;100942.59;;;26.92;61.45
48553;BME280;34335;51.566;6.994;2023-06-10T08:44:54;100937.28;;;27.05;62.00
48553;BME280;34335;51.566;6.994;2023-06-10T08:47:22;100941.03;;;27.02;60.71
48553;BME280;34335;51.566;6.994;2023-06-10T08:49:48;100938.91;;;27.08;60.01
48553;BME280;34335;51.566;6.994;2023-06-10T08:52:15;100945.56;;;27.15;60.06
48553;BME280;34335;51.566;6.994;2023-06-10T08:54:43;100940.44;;;27.37;58.65
48553;BME280;34335;51.566;6.994;2023-06-10T08:57:12;100948.59;;;27.49;58.95
48553;BME280;34335;51.566;6.994;2023-06-10T08:59:38;100932.81;;;27.72;60.02
48553;BME280;34335;51.566;6.994;2023-06-10T09:02:04;100936.13;;;27.62;57.86
48553;BME280;34335;51.566;6.994;2023-06-10T09:04:30;100937.41;;;27.70;56.67
48553;BME280;34335;51.566;6.994;2023-06-10T09:06:56;100928.22;;;27.74;57.36
48553;BME280;34335;51.566;6.994;2023-06-10T09:09:23;100930.22;;;28.09;57.46
48553;BME280;34335;51.566;6.994;2023-06-10T09:11:49;100937.41;;;28.08;57.54
48553;BME280;34335;51.566;6.994;2023-06-10T09:14:14;100924.41;;;28.28;56.13
48553;BME280;34335;51.566;6.994;2023-06-10T09:16:41;100929.19;;;28.36;56.03
48553;BME280;34335;51.566;6.994;2023-06-10T09:19:07;100930.19;;;28.59;57.24
48553;BME280;34335;51.566;6.994;2023-06-10T09:21:35;100933.03;;;28.69;57.03
48553;BME280;34335;51.566;6.994;2023-06-10T09:24:01;100927.09;;;28.89;56.73
48553;BME280;34335;51.566;6.994;2023-06-10T09:26:28;100916.97;;;29.17;56.38
48553;BME280;34335;51.566;6.994;2023-06-10T09:29:04;100922.38;;;29.40;56.18
48553;BME280;34335;51.566;6.994;2023-06-10T09:31:39;100922.88;;;29.45;55.88
48553;BME280;34335;51.566;6.994;2023-06-10T09:34:13;100928.38;;;29.55;55.86
48553;BME280;34335;51.566;6.994;2023-06-10T09:36:39;100928.25;;;29.45;54.91
48553;BME280;34335;51.566;6.994;2023-06-10T09:39:13;100929.38;;;29.77;53.50
48553;BME280;34335;51.566;6.994;2023-06-10T09:41:41;100927.94;;;29.95;52.95
48553;BME280;34335;51.566;6.994;2023-06-10T09:44:12;100933.06;;;29.98;55.46
48553;BME280;34335;51.566;6.994;2023-06-10T09:46:38;100922.91;;;29.91;52.26
48553;BME280;34335;51.566;6.994;2023-06-10T09:49:03;100927.16;;;29.82;52.03
48553;BME280;34335;51.566;6.994;2023-06-10T09:51:29;100923.78;;;30.03;52.51
48553;BME280;34335;51.566;6.994;2023-06-10T09:53:54;100927.94;;;30.18;52.13
48553;BME280;34335;51.566;6.994;2023-06-10T09:56:19;100932.19;;;30.21;49.83
48553;BME280;34335;51.566;6.994;2023-06-10T09:58:46;100919.72;;;30.31;50.89
48553;BME280;34335;51.566;6.994;2023-06-10T10:01:13;100932.16;;;30.43;49.56
48553;BME280;34335;51.566;6.994;2023-06-10T10:03:51;100927.63;;;30.44;50.80
48553;BME280;34335;51.566;6.994;2023-06-10T10:06:17;100920.41;;;30.44;49.58
48553;BME280;34335;51.566;6.994;2023-06-10T10:08:45;100922.59;;;30.51;48.57
48553;BME280;34335;51.566;6.994;2023-06-10T10:11:10;100919.78;;;30.64;48.47
48553;BME280;34335;51.566;6.994;2023-06-10T10:13:37;100917.03;;;30.86;49.02
48553;BME280;34335;51.566;6.994;2023-06-10T10:16:16;100920.91;;;30.93;47.82
48553;BME280;34335;51.566;6.994;2023-06-10T10:18:46;100914.25;;;30.98;46.06
48553;BME280;34335;51.566;6.994;2023-06-10T10:21:13;100909.69;;;31.21;46.84
48553;BME280;34335;51.566;6.994;2023-06-10T10:23:52;100915.66;;;30.92;45.08
48553;BME280;34335;51.566;6.994;2023-06-10T10:26:19;100913.84;;;31.14;46.17
48553;BME280;34335;51.566;6.994;2023-06-10T10:28:58;100922.88;;;31.13;45.69
48553;BME280;34335;51.566;6.994;2023-06-10T10:31:23;100908.78;;;30.99;44.78
48553;BME280;34335;51.566;6.994;2023-06-10T10:33:58;100912.66;;;31.49;46.74
48553;BME280;34335;51.566;6.994;2023-06-10T10:36:24;100921.72;;;31.48;45.01
48553;BME280;34335;51.566;6.994;2023-06-10T10:38:50;100916.34;;;31.48;44.27
48553;BME280;34335;51.566;6.994;2023-06-10T10:41:16;100916.59;;;31.45;45.01
48553;BME280;34335;51.566;6.994;2023-06-10T10:43:43;100910.50;;;31.43;43.66
48553;BME280;34335;51.566;6.994;2023-06-10T10:46:15;100915.38;;;31.59;43.48
48553;BME280;34335;51.566;6.994;2023-06-10T10:48:42;100911.97;;;31.78;42.82
48553;BME280;34335;51.566;6.994;2023-06-10T10:51:08;100911.13;;;31.77;42.97
48553;BME280;34335;51.566;6.994;2023-06-10T10:53:33;100914.28;;;31.82;43.37
48553;BME280;34335;51.566;6.994;2023-06-10T10:56:04;100908.34;;;31.89;43.25
48553;BME280;34335;51.566;6.994;2023-06-10T10:58:29;100912.81;;;32.19;43.51
48553;BME280;34335;51.566;6.994;2023-06-10T11:00:55;100906.75;;;32.17;43.39
48553;BME280;34335;51.566;6.994;2023-06-10T11:03:20;100916.88;;;32.04;42.74
48553;BME280;34335;51.566;6.994;2023-06-10T11:05:47;100898.47;;;31.99;41.79
48553;BME280;34335;51.566;6.994;2023-06-10T11:11:24;100905.63;;;32.29;41.41
48553;BME280;34335;51.566;6.994;2023-06-10T11:16:29;100888.41;;;32.61;40.60
48553;BME280;34335;51.566;6.994;2023-06-10T11:18:55;100894.81;;;32.80;39.61
48553;BME280;34335;51.566;6.994;2023-06-10T11:21:23;100883.72;;;32.54;40.87
48553;BME280;34335;51.566;6.994;2023-06-10T11:23:50;100886.69;;;33.00;40.75
48553;BME280;34335;51.566;6.994;2023-06-10T11:33:55;100874.22;;;33.08;40.26
48553;BME280;34335;51.566;6.994;2023-06-10T11:36:21;100882.97;;;33.20;39.67
48553;BME280;34335;51.566;6.994;2023-06-10T11:38:47;100878.13;;;33.34;39.23
48553;BME280;34335;51.566;6.994;2023-06-10T11:41:13;100874.28;;;33.46;38.36
48553;BME280;34335;51.566;6.994;2023-06-10T11:43:45;100880.84;;;33.14;37.21
48553;BME280;34335;51.566;6.994;2023-06-10T11:46:14;100874.47;;;33.15;36.62
48553;BME280;34335;51.566;6.994;2023-06-10T11:48:48;100872.69;;;33.53;38.02
48553;BME280;34335;51.566;6.994;2023-06-10T11:51:14;100872.31;;;33.29;38.18
48553;BME280;34335;51.566;6.994;2023-06-10T11:53:39;100878.06;;;33.53;36.02
48553;BME280;34335;51.566;6.994;2023-06-10T11:56:04;100874.63;;;33.99;38.31
48553;BME280;34335;51.566;6.994;2023-06-10T11:58:30;100868.28;;;33.90;38.16
48553;BME280;34335;51.566;6.994;2023-06-10T12:00:55;100872.41;;;33.84;38.26
48553;BME280;34335;51.566;6.994;2023-06-10T12:03:27;100869.50;;;33.68;35.05
48553;BME280;34335;51.566;6.994;2023-06-10T12:06:03;100864.00;;;34.15;37.18
48553;BME280;34335;51.566;6.994;2023-06-10T12:08:29;100861.06;;;33.81;37.60
48553;BME280;34335;51.566;6.994;2023-06-10T12:10:55;100867.66;;;34.24;38.22
48553;BME280;34335;51.566;6.994;2023-06-10T12:13:22;100864.00;;;34.15;36.95
48553;BME280;34335;51.566;6.994;2023-06-10T12:15:49;100860.63;;;34.13;36.13
48553;BME280;34335;51.566;6.994;2023-06-10T12:18:22;100849.25;;;33.92;34.86
48553;BME280;34335;51.566;6.994;2023-06-10T12:20:48;100855.22;;;33.95;35.20
48553;BME280;34335;51.566;6.994;2023-06-10T12:23:15;100853.59;;;34.02;34.69
48553;BME280;34335;51.566;6.994;2023-06-10T12:25:51;100851.69;;;34.13;35.91
48553;BME280;34335;51.566;6.994;2023-06-10T12:28:20;100851.78;;;33.65;34.45
48553;BME280;34335;51.566;6.994;2023-06-10T12:30:46;100845.75;;;34.09;36.16
48553;BME280;34335;51.566;6.994;2023-06-10T12:33:30;100850.53;;;34.15;34.53
48553;BME280;34335;51.566;6.994;2023-06-10T12:35:55;100847.91;;;34.60;35.70
48553;BME280;34335;51.566;6.994;2023-06-10T12:38:25;100850.44;;;34.25;33.62
48553;BME280;34335;51.566;6.994;2023-06-10T12:40:54;100857.00;;;34.23;34.38
48553;BME280;34335;51.566;6.994;2023-06-10T12:43:25;100853.31;;;34.24;35.59
48553;BME280;34335;51.566;6.994;2023-06-10T12:45:51;100845.97;;;34.34;33.54
48553;BME280;34335;51.566;6.994;2023-06-10T12:48:24;100838.81;;;34.61;34.91
48553;BME280;34335;51.566;6.994;2023-06-10T12:50:56;100833.56;;;34.05;35.00
48553;BME280;34335;51.566;6.994;2023-06-10T12:53:22;100838.66;;;34.26;31.91
48553;BME280;34335;51.566;6.994;2023-06-10T12:55:49;100829.34;;;34.39;33.55
48553;BME280;34335;51.566;6.994;2023-06-10T12:58:14;100839.22;;;34.48;33.46
48553;BME280;34335;51.566;6.994;2023-06-10T13:00:40;100831.00;;;34.76;31.50
48553;BME280;34335;51.566;6.994;2023-06-10T13:03:07;100833.16;;;34.72;33.31
48553;BME280;34335;51.566;6.994;2023-06-10T13:05:34;100833.81;;;34.66;33.59